sensor_id;sensor_type;location;lat;lon;timestamp;temperature;humidity
78536;SHT31;67829;51.968;5.684;2023-04-24T00:01:21;12.6;71.6
78536;SHT31;67829;51.968;5.684;2023-04-24T00:03:50;12.6;71.6
78536;SHT31;67829;51.968;5.684;2023-04-24T00:06:21;12.6;71.3
78536;SHT31;67829;51.968;5.684;2023-04-24T00:08:49;12.6;71.4
78536;SHT31;67829;51.968;5.684;2023-04-24T00:11:18;12.6;71.2
78536;SHT31;67829;51.968;5.684;2023-04-24T00:13:47;12.6;71.3
78536;SHT31;67829;51.968;5.684;2023-04-24T00:16:16;12.6;71.4
78536;SHT31;67829;51.968;5.684;2023-04-24T00:18:45;12.6;71.2
78536;SHT31;67829;51.968;5.684;2023-04-24T00:21:14;12.5;71.2
78536;SHT31;67829;51.968;5.684;2023-04-24T00:23:44;12.5;71.4
78536;SHT31;67829;51.968;5.684;2023-04-24T00:26:12;12.5;71.7
78536;SHT31;67829;51.968;5.684;2023-04-24T00:28:41;12.5;71.9
78536;SHT31;67829;51.968;5.684;2023-04-24T00:31:10;12.5;71.8
78536;SHT31;67829;51.968;5.684;2023-04-24T00:33:38;12.5;71.9
78536;SHT31;67829;51.968;5.684;2023-04-24T00:36:07;12.5;71.8
78536;SHT31;67829;51.968;5.684;2023-04-24T00:38:38;12.5;71.4
78536;SHT31;67829;51.968;5.684;2023-04-24T00:41:06;12.5;71.9
78536;SHT31;67829;51.968;5.684;2023-04-24T00:43:35;12.5;71.8
78536;SHT31;67829;51.968;5.684;2023-04-24T00:46:04;12.5;71.7
78536;SHT31;67829;51.968;5.684;2023-04-24T00:48:34;12.5;72.0
78536;SHT31;67829;51.968;5.684;2023-04-24T00:51:03;12.5;72.3
78536;SHT31;67829;51.968;5.684;2023-04-24T00:53:31;12.5;72.4
78536;SHT31;67829;51.968;5.684;2023-04-24T00:56:00;12.5;72.9
78536;SHT31;67829;51.968;5.684;2023-04-24T00:58:29;12.5;73.2
78536;SHT31;67829;51.968;5.684;2023-04-24T01:01:01;12.5;73.2
78536;SHT31;67829;51.968;5.684;2023-04-24T01:03:33;12.5;73.2
78536;SHT31;67829;51.968;5.684;2023-04-24T01:06:04;12.5;73.0
78536;SHT31;67829;51.968;5.684;2023-04-24T01:08:34;12.5;73.3
78536;SHT31;67829;51.968;5.684;2023-04-24T01:11:04;12.5;72.1
78536;SHT31;67829;51.968;5.684;2023-04-24T01:13:34;12.5;71.5
78536;SHT31;67829;51.968;5.684;2023-04-24T01:16:03;12.5;71.5
78536;SHT31;67829;51.968;5.684;2023-04-24T01:18:32;12.5;71.9
78536;SHT31;67829;51.968;5.684;2023-04-24T01:21:03;12.5;71.8
78536;SHT31;67829;51.968;5.684;2023-04-24T01:23:32;12.5;72.3
78536;SHT31;67829;51.968;5.684;2023-04-24T01:26:01;12.4;71.7
78536;SHT31;67829;51.968;5.684;2023-04-24T01:28:30;12.4;71.9
78536;SHT31;67829;51.968;5.684;2023-04-24T01:30:59;12.4;72.4
78536;SHT31;67829;51.968;5.684;2023-04-24T01:33:28;12.4;72.6
78536;SHT31;67829;51.968;5.684;2023-04-24T01:35:57;12.4;72.7
78536;SHT31;67829;51.968;5.684;2023-04-24T01:38:26;12.4;73.1
78536;SHT31;67829;51.968;5.684;2023-04-24T01:40:56;12.4;73.2
78536;SHT31;67829;51.968;5.684;2023-04-24T01:43:25;12.4;73.1
78536;SHT31;67829;51.968;5.684;2023-04-24T01:45:54;12.3;73.1
78536;SHT31;67829;51.968;5.684;2023-04-24T01:48:22;12.3;72.9
78536;SHT31;67829;51.968;5.684;2023-04-24T01:50:51;12.3;73.2
78536;SHT31;67829;51.968;5.684;2023-04-24T01:53:20;12.3;73.3
78536;SHT31;67829;51.968;5.684;2023-04-24T01:55:49;12.3;73.6
78536;SHT31;67829;51.968;5.684;2023-04-24T01:58:17;12.4;73.4
78536;SHT31;67829;51.968;5.684;2023-04-24T02:00:48;12.4;73.7
78536;SHT31;67829;51.968;5.684;2023-04-24T02:03:16;12.4;73.9
78536;SHT31;67829;51.968;5.684;2023-04-24T02:05:45;12.4;73.9
78536;SHT31;67829;51.968;5.684;2023-04-24T02:08:14;12.4;73.9
78536;SHT31;67829;51.968;5.684;2023-04-24T02:10:42;12.4;73.9
78536;SHT31;67829;51.968;5.684;2023-04-24T02:13:11;12.4;73.8
78536;SHT31;67829;51.968;5.684;2023-04-24T02:15:39;12.4;73.9
78536;SHT31;67829;51.968;5.684;2023-04-24T02:18:08;12.4;73.8
78536;SHT31;67829;51.968;5.684;2023-04-24T02:20:37;12.4;73.9
78536;SHT31;67829;51.968;5.684;2023-04-24T02:23:06;12.5;74.1
78536;SHT31;67829;51.968;5.684;2023-04-24T02:25:35;12.5;73.8
78536;SHT31;67829;51.968;5.684;2023-04-24T02:28:03;12.5;73.9
78536;SHT31;67829;51.968;5.684;2023-04-24T02:30:32;12.5;74.0
78536;SHT31;67829;51.968;5.684;2023-04-24T02:33:00;12.5;74.3
78536;SHT31;67829;51.968;5.684;2023-04-24T02:35:29;12.5;74.5
78536;SHT31;67829;51.968;5.684;2023-04-24T02:37:58;12.5;74.1
78536;SHT31;67829;51.968;5.684;2023-04-24T02:40:26;12.5;73.6
78536;SHT31;67829;51.968;5.684;2023-04-24T02:42:55;12.5;73.5
78536;SHT31;67829;51.968;5.684;2023-04-24T02:45:23;12.5;73.8
78536;SHT31;67829;51.968;5.684;2023-04-24T02:47:52;12.5;73.4
78536;SHT31;67829;51.968;5.684;2023-04-24T02:50:21;12.5;73.7
78536;SHT31;67829;51.968;5.684;2023-04-24T02:52:49;12.4;73.6
78536;SHT31;67829;51.968;5.684;2023-04-24T02:55:18;12.4;73.1
78536;SHT31;67829;51.968;5.684;2023-04-24T02:57:46;12.4;72.8
78536;SHT31;67829;51.968;5.684;2023-04-24T03:00:15;12.4;72.9
78536;SHT31;67829;51.968;5.684;2023-04-24T03:02:44;12.4;72.6
78536;SHT31;67829;51.968;5.684;2023-04-24T03:05:12;12.4;73.0
78536;SHT31;67829;51.968;5.684;2023-04-24T03:07:41;12.4;73.2
78536;SHT31;67829;51.968;5.684;2023-04-24T03:10:10;12.4;73.4
78536;SHT31;67829;51.968;5.684;2023-04-24T03:12:39;12.3;73.6
78536;SHT31;67829;51.968;5.684;2023-04-24T03:15:08;12.3;73.8
78536;SHT31;67829;51.968;5.684;2023-04-24T03:17:37;12.3;74.2
78536;SHT31;67829;51.968;5.684;2023-04-24T03:20:07;12.3;74.5
78536;SHT31;67829;51.968;5.684;2023-04-24T03:22:36;12.3;74.5
78536;SHT31;67829;51.968;5.684;2023-04-24T03:25:05;12.3;74.3
78536;SHT31;67829;51.968;5.684;2023-04-24T03:27:35;12.3;74.1
78536;SHT31;67829;51.968;5.684;2023-04-24T03:30:04;12.3;73.9
78536;SHT31;67829;51.968;5.684;2023-04-24T03:32:35;12.3;74.0
78536;SHT31;67829;51.968;5.684;2023-04-24T03:35:06;12.3;73.7
78536;SHT31;67829;51.968;5.684;2023-04-24T03:37:35;12.3;73.8
78536;SHT31;67829;51.968;5.684;2023-04-24T03:40:04;12.3;73.7
78536;SHT31;67829;51.968;5.684;2023-04-24T03:42:33;12.3;73.8
78536;SHT31;67829;51.968;5.684;2023-04-24T03:45:01;12.3;73.9
78536;SHT31;67829;51.968;5.684;2023-04-24T03:47:30;12.3;73.9
78536;SHT31;67829;51.968;5.684;2023-04-24T03:49:59;12.3;73.8
78536;SHT31;67829;51.968;5.684;2023-04-24T03:52:27;12.3;73.7
78536;SHT31;67829;51.968;5.684;2023-04-24T03:54:56;12.3;73.7
78536;SHT31;67829;51.968;5.684;2023-04-24T03:57:24;12.3;73.5
78536;SHT31;67829;51.968;5.684;2023-04-24T03:59:53;12.3;72.9
78536;SHT31;67829;51.968;5.684;2023-04-24T04:02:21;12.3;73.0
78536;SHT31;67829;51.968;5.684;2023-04-24T04:04:50;12.3;72.9
78536;SHT31;67829;51.968;5.684;2023-04-24T04:07:20;12.3;73.0
78536;SHT31;67829;51.968;5.684;2023-04-24T04:09:49;12.3;72.8
78536;SHT31;67829;51.968;5.684;2023-04-24T04:12:17;12.3;72.4
78536;SHT31;67829;51.968;5.684;2023-04-24T04:14:46;12.3;72.4
78536;SHT31;67829;51.968;5.684;2023-04-24T04:17:14;12.3;72.2
78536;SHT31;67829;51.968;5.684;2023-04-24T04:19:44;12.3;71.8
78536;SHT31;67829;51.968;5.684;2023-04-24T04:22:12;12.3;72.0
78536;SHT31;67829;51.968;5.684;2023-04-24T04:24:41;12.3;71.9
78536;SHT31;67829;51.968;5.684;2023-04-24T04:27:10;12.3;71.9
78536;SHT31;67829;51.968;5.684;2023-04-24T04:29:39;12.2;71.9
78536;SHT31;67829;51.968;5.684;2023-04-24T04:32:08;12.2;71.7
78536;SHT31;67829;51.968;5.684;2023-04-24T04:34:36;12.2;72.1
78536;SHT31;67829;51.968;5.684;2023-04-24T04:37:06;12.2;71.8
78536;SHT31;67829;51.968;5.684;2023-04-24T04:39:37;12.2;72.1
78536;SHT31;67829;51.968;5.684;2023-04-24T04:42:08;12.2;72.2
78536;SHT31;67829;51.968;5.684;2023-04-24T04:44:36;12.2;72.3
78536;SHT31;67829;51.968;5.684;2023-04-24T04:47:08;12.1;72.2
78536;SHT31;67829;51.968;5.684;2023-04-24T04:49:37;12.1;72.2
78536;SHT31;67829;51.968;5.684;2023-04-24T04:52:05;12.1;72.4
78536;SHT31;67829;51.968;5.684;2023-04-24T04:54:34;12.1;72.7
78536;SHT31;67829;51.968;5.684;2023-04-24T04:57:02;12.0;72.8
78536;SHT31;67829;51.968;5.684;2023-04-24T04:59:31;12.0;72.7
78536;SHT31;67829;51.968;5.684;2023-04-24T05:02:00;12.0;72.6
78536;SHT31;67829;51.968;5.684;2023-04-24T05:04:28;12.0;72.8
78536;SHT31;67829;51.968;5.684;2023-04-24T05:06:57;11.9;73.1
78536;SHT31;67829;51.968;5.684;2023-04-24T05:09:26;11.9;73.2
78536;SHT31;67829;51.968;5.684;2023-04-24T05:11:56;11.9;72.9
78536;SHT31;67829;51.968;5.684;2023-04-24T05:14:24;11.9;73.1
78536;SHT31;67829;51.968;5.684;2023-04-24T05:16:53;11.9;73.0
78536;SHT31;67829;51.968;5.684;2023-04-24T05:19:21;11.9;72.8
78536;SHT31;67829;51.968;5.684;2023-04-24T05:21:50;12.0;72.5
78536;SHT31;67829;51.968;5.684;2023-04-24T05:24:18;12.0;72.7
78536;SHT31;67829;51.968;5.684;2023-04-24T05:26:47;12.0;72.2
78536;SHT31;67829;51.968;5.684;2023-04-24T05:29:16;12.0;72.7
78536;SHT31;67829;51.968;5.684;2023-04-24T05:31:45;12.0;72.6
78536;SHT31;67829;51.968;5.684;2023-04-24T05:34:15;12.1;72.8
78536;SHT31;67829;51.968;5.684;2023-04-24T05:36:44;12.1;73.0
78536;SHT31;67829;51.968;5.684;2023-04-24T05:39:13;12.1;72.8
78536;SHT31;67829;51.968;5.684;2023-04-24T05:41:42;12.1;72.9
78536;SHT31;67829;51.968;5.684;2023-04-24T05:44:11;12.2;72.8
78536;SHT31;67829;51.968;5.684;2023-04-24T05:46:39;12.2;72.9
78536;SHT31;67829;51.968;5.684;2023-04-24T05:49:08;12.2;73.1
78536;SHT31;67829;51.968;5.684;2023-04-24T05:51:36;12.2;72.7
78536;SHT31;67829;51.968;5.684;2023-04-24T05:54:05;12.3;72.9
78536;SHT31;67829;51.968;5.684;2023-04-24T05:56:34;12.3;72.3
78536;SHT31;67829;51.968;5.684;2023-04-24T05:59:03;12.3;72.4
78536;SHT31;67829;51.968;5.684;2023-04-24T06:01:31;12.3;72.5
78536;SHT31;67829;51.968;5.684;2023-04-24T06:04:00;12.3;72.5
78536;SHT31;67829;51.968;5.684;2023-04-24T06:06:29;12.4;72.8
78536;SHT31;67829;51.968;5.684;2023-04-24T06:08:59;12.4;72.7
78536;SHT31;67829;51.968;5.684;2023-04-24T06:11:27;12.4;72.8
78536;SHT31;67829;51.968;5.684;2023-04-24T06:13:56;12.4;72.2
78536;SHT31;67829;51.968;5.684;2023-04-24T06:16:24;12.4;71.8
78536;SHT31;67829;51.968;5.684;2023-04-24T06:18:53;12.4;72.3
78536;SHT31;67829;51.968;5.684;2023-04-24T06:21:21;12.5;72.7
78536;SHT31;67829;51.968;5.684;2023-04-24T06:23:50;12.5;72.7
78536;SHT31;67829;51.968;5.684;2023-04-24T06:26:18;12.5;72.8
78536;SHT31;67829;51.968;5.684;2023-04-24T06:28:47;12.5;72.6
78536;SHT31;67829;51.968;5.684;2023-04-24T06:31:18;12.5;72.6
78536;SHT31;67829;51.968;5.684;2023-04-24T06:33:48;12.6;72.3
78536;SHT31;67829;51.968;5.684;2023-04-24T06:36:17;12.6;72.2
78536;SHT31;67829;51.968;5.684;2023-04-24T06:38:48;12.6;71.3
78536;SHT31;67829;51.968;5.684;2023-04-24T06:41:16;12.6;70.9
78536;SHT31;67829;51.968;5.684;2023-04-24T06:43:45;12.6;71.6
78536;SHT31;67829;51.968;5.684;2023-04-24T06:46:13;12.5;71.2
78536;SHT31;67829;51.968;5.684;2023-04-24T06:48:43;12.5;71.5
78536;SHT31;67829;51.968;5.684;2023-04-24T06:51:11;12.5;71.4
78536;SHT31;67829;51.968;5.684;2023-04-24T06:53:40;12.5;71.4
78536;SHT31;67829;51.968;5.684;2023-04-24T06:56:08;12.5;71.0
78536;SHT31;67829;51.968;5.684;2023-04-24T06:58:39;12.4;71.5
78536;SHT31;67829;51.968;5.684;2023-04-24T07:01:07;12.4;72.0
78536;SHT31;67829;51.968;5.684;2023-04-24T07:03:36;12.4;71.7
78536;SHT31;67829;51.968;5.684;2023-04-24T07:06:05;12.3;71.3
78536;SHT31;67829;51.968;5.684;2023-04-24T07:08:34;12.3;71.1
78536;SHT31;67829;51.968;5.684;2023-04-24T07:11:03;12.2;71.4
78536;SHT31;67829;51.968;5.684;2023-04-24T07:13:32;12.2;71.6
78536;SHT31;67829;51.968;5.684;2023-04-24T07:16:01;12.2;71.3
78536;SHT31;67829;51.968;5.684;2023-04-24T07:18:30;12.1;71.7
78536;SHT31;67829;51.968;5.684;2023-04-24T07:20:58;12.1;71.6
78536;SHT31;67829;51.968;5.684;2023-04-24T07:23:27;12.1;71.5
78536;SHT31;67829;51.968;5.684;2023-04-24T07:25:57;12.0;71.6
78536;SHT31;67829;51.968;5.684;2023-04-24T07:28:25;12.0;72.0
78536;SHT31;67829;51.968;5.684;2023-04-24T07:30:57;12.0;71.4
78536;SHT31;67829;51.968;5.684;2023-04-24T07:33:26;11.9;72.2
78536;SHT31;67829;51.968;5.684;2023-04-24T07:35:57;11.9;72.2
78536;SHT31;67829;51.968;5.684;2023-04-24T07:38:26;11.9;71.9
78536;SHT31;67829;51.968;5.684;2023-04-24T07:40:56;11.9;71.4
78536;SHT31;67829;51.968;5.684;2023-04-24T07:43:24;11.8;71.8
78536;SHT31;67829;51.968;5.684;2023-04-24T07:45:53;11.8;71.3
78536;SHT31;67829;51.968;5.684;2023-04-24T07:48:22;11.8;70.7
78536;SHT31;67829;51.968;5.684;2023-04-24T07:50:52;11.7;71.7
78536;SHT31;67829;51.968;5.684;2023-04-24T07:53:21;11.7;71.8
78536;SHT31;67829;51.968;5.684;2023-04-24T07:55:49;11.6;71.8
78536;SHT31;67829;51.968;5.684;2023-04-24T07:58:18;11.6;71.9
78536;SHT31;67829;51.968;5.684;2023-04-24T08:00:47;11.6;71.5
78536;SHT31;67829;51.968;5.684;2023-04-24T08:03:15;11.5;72.2
78536;SHT31;67829;51.968;5.684;2023-04-24T08:05:46;11.5;72.4
78536;SHT31;67829;51.968;5.684;2023-04-24T08:08:14;11.5;72.5
78536;SHT31;67829;51.968;5.684;2023-04-24T08:10:43;11.5;72.7
78536;SHT31;67829;51.968;5.684;2023-04-24T08:13:12;11.4;72.7
78536;SHT31;67829;51.968;5.684;2023-04-24T08:15:40;11.4;72.7
78536;SHT31;67829;51.968;5.684;2023-04-24T08:18:09;11.4;72.8
78536;SHT31;67829;51.968;5.684;2023-04-24T08:20:39;11.4;73.2
78536;SHT31;67829;51.968;5.684;2023-04-24T08:23:07;11.4;73.5
78536;SHT31;67829;51.968;5.684;2023-04-24T08:25:36;11.4;73.6
78536;SHT31;67829;51.968;5.684;2023-04-24T08:28:06;11.5;73.4
78536;SHT31;67829;51.968;5.684;2023-04-24T08:30:34;11.5;73.0
78536;SHT31;67829;51.968;5.684;2023-04-24T08:33:04;11.5;72.8
78536;SHT31;67829;51.968;5.684;2023-04-24T08:35:33;11.5;73.2
78536;SHT31;67829;51.968;5.684;2023-04-24T08:38:02;11.5;73.0
78536;SHT31;67829;51.968;5.684;2023-04-24T08:40:34;11.6;73.4
78536;SHT31;67829;51.968;5.684;2023-04-24T08:43:03;11.6;72.4
78536;SHT31;67829;51.968;5.684;2023-04-24T08:45:32;11.6;72.3
78536;SHT31;67829;51.968;5.684;2023-04-24T08:48:02;11.6;71.8
78536;SHT31;67829;51.968;5.684;2023-04-24T08:50:34;11.6;72.0
78536;SHT31;67829;51.968;5.684;2023-04-24T08:53:03;11.6;71.7
78536;SHT31;67829;51.968;5.684;2023-04-24T08:55:33;11.6;71.9
78536;SHT31;67829;51.968;5.684;2023-04-24T08:58:02;11.6;72.0
78536;SHT31;67829;51.968;5.684;2023-04-24T09:00:32;11.6;71.9
78536;SHT31;67829;51.968;5.684;2023-04-24T09:03:02;11.6;72.1
78536;SHT31;67829;51.968;5.684;2023-04-24T09:05:32;11.6;71.8
78536;SHT31;67829;51.968;5.684;2023-04-24T09:08:02;11.6;71.1
78536;SHT31;67829;51.968;5.684;2023-04-24T09:10:34;11.6;70.3
78536;SHT31;67829;51.968;5.684;2023-04-24T09:13:03;11.7;70.8
78536;SHT31;67829;51.968;5.684;2023-04-24T09:15:32;11.7;70.0
78536;SHT31;67829;51.968;5.684;2023-04-24T09:18:01;11.7;68.8
78536;SHT31;67829;51.968;5.684;2023-04-24T09:20:30;11.7;69.5
78536;SHT31;67829;51.968;5.684;2023-04-24T09:22:59;11.7;68.3
78536;SHT31;67829;51.968;5.684;2023-04-24T09:25:33;11.7;68.8
78536;SHT31;67829;51.968;5.684;2023-04-24T09:28:04;11.8;67.8
78536;SHT31;67829;51.968;5.684;2023-04-24T09:30:32;11.8;68.3
78536;SHT31;67829;51.968;5.684;2023-04-24T09:33:14;11.8;68.0
78536;SHT31;67829;51.968;5.684;2023-04-24T09:35:50;11.8;66.2
78536;SHT31;67829;51.968;5.684;2023-04-24T09:38:32;11.9;65.9
78536;SHT31;67829;51.968;5.684;2023-04-24T09:41:03;11.9;67.5
78536;SHT31;67829;51.968;5.684;2023-04-24T09:43:33;11.9;66.2
78536;SHT31;67829;51.968;5.684;2023-04-24T09:46:05;11.9;67.3
78536;SHT31;67829;51.968;5.684;2023-04-24T09:48:36;12.0;65.8
78536;SHT31;67829;51.968;5.684;2023-04-24T09:51:06;12.0;65.8
78536;SHT31;67829;51.968;5.684;2023-04-24T09:53:37;12.0;65.6
78536;SHT31;67829;51.968;5.684;2023-04-24T09:56:09;12.0;66.1
78536;SHT31;67829;51.968;5.684;2023-04-24T09:58:39;12.1;66.6
78536;SHT31;67829;51.968;5.684;2023-04-24T10:01:10;12.1;64.8
78536;SHT31;67829;51.968;5.684;2023-04-24T10:03:42;12.2;66.5
78536;SHT31;67829;51.968;5.684;2023-04-24T10:06:13;12.2;63.0
78536;SHT31;67829;51.968;5.684;2023-04-24T10:08:43;12.3;62.8
78536;SHT31;67829;51.968;5.684;2023-04-24T10:11:12;12.4;64.1
78536;SHT31;67829;51.968;5.684;2023-04-24T10:13:42;12.4;61.4
78536;SHT31;67829;51.968;5.684;2023-04-24T10:16:13;12.4;62.5
78536;SHT31;67829;51.968;5.684;2023-04-24T10:18:45;12.5;64.0
78536;SHT31;67829;51.968;5.684;2023-04-24T10:21:14;12.6;62.1
78536;SHT31;67829;51.968;5.684;2023-04-24T10:23:44;12.6;59.3
78536;SHT31;67829;51.968;5.684;2023-04-24T10:26:14;12.7;59.8
78536;SHT31;67829;51.968;5.684;2023-04-24T10:28:44;12.7;57.8
78536;SHT31;67829;51.968;5.684;2023-04-24T10:31:14;12.7;58.2
78536;SHT31;67829;51.968;5.684;2023-04-24T10:33:45;12.7;58.0
78536;SHT31;67829;51.968;5.684;2023-04-24T10:36:15;12.8;57.7
78536;SHT31;67829;51.968;5.684;2023-04-24T10:38:46;12.8;57.8
78536;SHT31;67829;51.968;5.684;2023-04-24T10:41:18;12.8;55.8
78536;SHT31;67829;51.968;5.684;2023-04-24T10:44:08;12.8;57.0
78536;SHT31;67829;51.968;5.684;2023-04-24T10:46:38;12.8;57.3
78536;SHT31;67829;51.968;5.684;2023-04-24T10:49:07;12.8;57.8
78536;SHT31;67829;51.968;5.684;2023-04-24T10:51:51;12.9;56.1
78536;SHT31;67829;51.968;5.684;2023-04-24T10:54:27;12.8;56.4
78536;SHT31;67829;51.968;5.684;2023-04-24T10:57:26;12.8;57.2
78536;SHT31;67829;51.968;5.684;2023-04-24T11:00:14;12.8;56.8
78536;SHT31;67829;51.968;5.684;2023-04-24T11:02:46;12.7;56.3
78536;SHT31;67829;51.968;5.684;2023-04-24T11:05:20;12.7;56.2
78536;SHT31;67829;51.968;5.684;2023-04-24T11:08:21;12.7;56.6
78536;SHT31;67829;51.968;5.684;2023-04-24T11:10:57;12.7;58.3
78536;SHT31;67829;51.968;5.684;2023-04-24T11:13:31;12.8;57.9
78536;SHT31;67829;51.968;5.684;2023-04-24T11:16:21;12.9;56.7
78536;SHT31;67829;51.968;5.684;2023-04-24T11:19:02;13.0;56.8
78536;SHT31;67829;51.968;5.684;2023-04-24T11:21:39;13.1;56.5
78536;SHT31;67829;51.968;5.684;2023-04-24T11:24:23;13.2;56.5
78536;SHT31;67829;51.968;5.684;2023-04-24T11:26:53;13.2;57.0
78536;SHT31;67829;51.968;5.684;2023-04-24T11:29:42;13.3;57.8
78536;SHT31;67829;51.968;5.684;2023-04-24T11:32:23;13.3;57.9
78536;SHT31;67829;51.968;5.684;2023-04-24T11:34:54;13.3;59.3
78536;SHT31;67829;51.968;5.684;2023-04-24T11:37:25;13.4;59.2
78536;SHT31;67829;51.968;5.684;2023-04-24T11:39:56;13.4;59.7
78536;SHT31;67829;51.968;5.684;2023-04-24T11:42:26;13.5;59.5
78536;SHT31;67829;51.968;5.684;2023-04-24T11:44:55;13.6;57.3
78536;SHT31;67829;51.968;5.684;2023-04-24T11:47:31;13.6;55.9
78536;SHT31;67829;51.968;5.684;2023-04-24T11:50:00;13.6;55.1
78536;SHT31;67829;51.968;5.684;2023-04-24T11:52:30;13.6;55.6
78536;SHT31;67829;51.968;5.684;2023-04-24T11:54:59;13.6;56.1
78536;SHT31;67829;51.968;5.684;2023-04-24T11:57:28;13.5;56.1
78536;SHT31;67829;51.968;5.684;2023-04-24T12:00:00;13.5;56.3
78536;SHT31;67829;51.968;5.684;2023-04-24T12:02:28;13.4;57.9
78536;SHT31;67829;51.968;5.684;2023-04-24T12:04:57;13.4;58.6
78536;SHT31;67829;51.968;5.684;2023-04-24T12:07:26;13.3;59.4
78536;SHT31;67829;51.968;5.684;2023-04-24T12:10:00;13.3;58.4
78536;SHT31;67829;51.968;5.684;2023-04-24T12:12:28;13.2;59.5
78536;SHT31;67829;51.968;5.684;2023-04-24T12:14:58;13.1;60.2
78536;SHT31;67829;51.968;5.684;2023-04-24T12:17:29;13.1;60.2
78536;SHT31;67829;51.968;5.684;2023-04-24T12:20:03;13.1;60.5
78536;SHT31;67829;51.968;5.684;2023-04-24T12:22:45;13.1;60.6
78536;SHT31;67829;51.968;5.684;2023-04-24T12:25:16;13.1;58.7
78536;SHT31;67829;51.968;5.684;2023-04-24T12:27:47;13.1;58.1
78536;SHT31;67829;51.968;5.684;2023-04-24T12:30:19;13.1;57.9
78536;SHT31;67829;51.968;5.684;2023-04-24T12:32:49;13.1;57.6
78536;SHT31;67829;51.968;5.684;2023-04-24T12:35:22;13.1;57.3
78536;SHT31;67829;51.968;5.684;2023-04-24T12:37:51;13.1;56.5
78536;SHT31;67829;51.968;5.684;2023-04-24T12:40:21;13.1;56.5
78536;SHT31;67829;51.968;5.684;2023-04-24T12:42:51;13.1;56.7
78536;SHT31;67829;51.968;5.684;2023-04-24T12:45:20;13.0;56.7
78536;SHT31;67829;51.968;5.684;2023-04-24T12:47:50;13.0;57.1
78536;SHT31;67829;51.968;5.684;2023-04-24T12:50:18;13.0;56.7
78536;SHT31;67829;51.968;5.684;2023-04-24T12:52:47;13.0;56.9
78536;SHT31;67829;51.968;5.684;2023-04-24T12:55:16;13.0;58.1
78536;SHT31;67829;51.968;5.684;2023-04-24T12:57:44;13.0;56.9
78536;SHT31;67829;51.968;5.684;2023-04-24T13:00:13;13.0;56.5
78536;SHT31;67829;51.968;5.684;2023-04-24T13:02:42;13.0;56.1
78536;SHT31;67829;51.968;5.684;2023-04-24T13:05:11;13.0;57.1
78536;SHT31;67829;51.968;5.684;2023-04-24T13:07:40;13.0;55.8
78536;SHT31;67829;51.968;5.684;2023-04-24T13:10:09;13.0;56.4
78536;SHT31;67829;51.968;5.684;2023-04-24T13:12:39;13.0;54.6
78536;SHT31;67829;51.968;5.684;2023-04-24T13:15:13;13.0;54.9
78536;SHT31;67829;51.968;5.684;2023-04-24T13:17:42;13.0;55.3
78536;SHT31;67829;51.968;5.684;2023-04-24T13:20:11;13.0;55.1
78536;SHT31;67829;51.968;5.684;2023-04-24T13:22:39;13.0;55.9
78536;SHT31;67829;51.968;5.684;2023-04-24T13:25:08;13.1;54.8
78536;SHT31;67829;51.968;5.684;2023-04-24T13:27:38;13.1;54.1
78536;SHT31;67829;51.968;5.684;2023-04-24T13:30:07;13.1;53.2
78536;SHT31;67829;51.968;5.684;2023-04-24T13:32:37;13.1;54.1
78536;SHT31;67829;51.968;5.684;2023-04-24T13:35:06;13.1;55.3
78536;SHT31;67829;51.968;5.684;2023-04-24T13:37:35;13.1;55.3
78536;SHT31;67829;51.968;5.684;2023-04-24T13:40:04;13.2;55.5
78536;SHT31;67829;51.968;5.684;2023-04-24T13:42:34;13.2;54.5
78536;SHT31;67829;51.968;5.684;2023-04-24T13:45:03;13.3;54.2
78536;SHT31;67829;51.968;5.684;2023-04-24T13:47:32;13.3;52.1
78536;SHT31;67829;51.968;5.684;2023-04-24T13:50:01;13.4;51.3
78536;SHT31;67829;51.968;5.684;2023-04-24T13:52:30;13.5;50.0
78536;SHT31;67829;51.968;5.684;2023-04-24T13:54:59;13.5;49.9
78536;SHT31;67829;51.968;5.684;2023-04-24T13:57:27;13.6;50.9
78536;SHT31;67829;51.968;5.684;2023-04-24T13:59:57;13.6;50.7
78536;SHT31;67829;51.968;5.684;2023-04-24T14:02:28;13.7;50.2
78536;SHT31;67829;51.968;5.684;2023-04-24T14:04:56;13.8;49.6
78536;SHT31;67829;51.968;5.684;2023-04-24T14:07:25;13.8;49.7
78536;SHT31;67829;51.968;5.684;2023-04-24T14:09:54;13.8;49.7
78536;SHT31;67829;51.968;5.684;2023-04-24T14:12:23;13.8;48.3
78536;SHT31;67829;51.968;5.684;2023-04-24T14:14:54;13.8;49.9
78536;SHT31;67829;51.968;5.684;2023-04-24T14:17:22;13.8;50.7
78536;SHT31;67829;51.968;5.684;2023-04-24T14:19:51;13.8;50.7
78536;SHT31;67829;51.968;5.684;2023-04-24T14:22:22;13.8;47.8
78536;SHT31;67829;51.968;5.684;2023-04-24T14:24:53;13.8;48.5
78536;SHT31;67829;51.968;5.684;2023-04-24T14:27:21;13.8;47.2
78536;SHT31;67829;51.968;5.684;2023-04-24T14:29:52;13.8;46.2
78536;SHT31;67829;51.968;5.684;2023-04-24T14:32:21;13.9;46.8
78536;SHT31;67829;51.968;5.684;2023-04-24T14:34:49;13.9;47.1
78536;SHT31;67829;51.968;5.684;2023-04-24T14:37:19;13.9;47.4
78536;SHT31;67829;51.968;5.684;2023-04-24T14:39:47;13.9;48.5
78536;SHT31;67829;51.968;5.684;2023-04-24T14:42:16;13.9;48.6
78536;SHT31;67829;51.968;5.684;2023-04-24T14:44:45;14.0;48.6
78536;SHT31;67829;51.968;5.684;2023-04-24T14:47:13;14.0;45.8
78536;SHT31;67829;51.968;5.684;2023-04-24T14:49:43;14.0;47.8
78536;SHT31;67829;51.968;5.684;2023-04-24T14:52:12;14.1;46.7
78536;SHT31;67829;51.968;5.684;2023-04-24T14:54:41;14.1;46.9
78536;SHT31;67829;51.968;5.684;2023-04-24T14:57:09;14.1;47.2
78536;SHT31;67829;51.968;5.684;2023-04-24T14:59:38;14.1;46.9
78536;SHT31;67829;51.968;5.684;2023-04-24T15:02:07;14.0;47.9
78536;SHT31;67829;51.968;5.684;2023-04-24T15:04:36;14.0;48.2
78536;SHT31;67829;51.968;5.684;2023-04-24T15:07:05;14.0;47.8
78536;SHT31;67829;51.968;5.684;2023-04-24T15:09:35;14.0;47.5
78536;SHT31;67829;51.968;5.684;2023-04-24T15:12:04;14.0;48.0
78536;SHT31;67829;51.968;5.684;2023-04-24T15:14:33;14.0;49.1
78536;SHT31;67829;51.968;5.684;2023-04-24T15:17:01;13.9;48.2
78536;SHT31;67829;51.968;5.684;2023-04-24T15:19:31;13.9;48.1
78536;SHT31;67829;51.968;5.684;2023-04-24T15:21:59;13.9;47.4
78536;SHT31;67829;51.968;5.684;2023-04-24T15:24:28;13.8;47.6
78536;SHT31;67829;51.968;5.684;2023-04-24T15:26:56;13.8;47.6
78536;SHT31;67829;51.968;5.684;2023-04-24T15:29:25;13.8;48.0
78536;SHT31;67829;51.968;5.684;2023-04-24T15:31:54;13.7;48.2
78536;SHT31;67829;51.968;5.684;2023-04-24T15:34:23;13.7;49.2
78536;SHT31;67829;51.968;5.684;2023-04-24T15:36:51;13.7;50.7
78536;SHT31;67829;51.968;5.684;2023-04-24T15:39:22;13.7;50.6
78536;SHT31;67829;51.968;5.684;2023-04-24T15:41:51;13.7;48.7
78536;SHT31;67829;51.968;5.684;2023-04-24T15:44:22;13.7;48.9
78536;SHT31;67829;51.968;5.684;2023-04-24T15:46:52;13.6;49.2
78536;SHT31;67829;51.968;5.684;2023-04-24T15:49:21;13.7;48.9
78536;SHT31;67829;51.968;5.684;2023-04-24T15:51:50;13.7;48.8
78536;SHT31;67829;51.968;5.684;2023-04-24T15:54:18;13.8;49.8
78536;SHT31;67829;51.968;5.684;2023-04-24T15:56:49;13.9;50.2
78536;SHT31;67829;51.968;5.684;2023-04-24T15:59:18;14.0;49.0
78536;SHT31;67829;51.968;5.684;2023-04-24T16:01:50;14.1;49.3
78536;SHT31;67829;51.968;5.684;2023-04-24T16:04:21;14.2;50.6
78536;SHT31;67829;51.968;5.684;2023-04-24T16:06:49;14.3;50.0
78536;SHT31;67829;51.968;5.684;2023-04-24T16:09:18;14.4;49.1
78536;SHT31;67829;51.968;5.684;2023-04-24T16:11:46;14.4;49.0
78536;SHT31;67829;51.968;5.684;2023-04-24T16:14:16;14.4;49.0
78536;SHT31;67829;51.968;5.684;2023-04-24T16:16:44;14.4;49.5
78536;SHT31;67829;51.968;5.684;2023-04-24T16:19:13;14.3;50.1